Terminal Aerodrome Forecast
Issued by NWS

Home | Current Version | Previous Version | Text Only | Print | Product List | Glossary On
Versions: 1 2 3 4 5 6 7 8 9 10 11 12 13 14 15 16 17 18
000
FTUS43 KDMX 270808 AAA
TAFFOD
TAF AMD
KFOD 270808Z 2708/2806 19004KT P6SM SKC
      TEMPO 2710/2713 5SM BR
     FM271400 15006KT P6SM SKC
     FM271800 16009KT P6SM BKN150
     FM280300 13007KT P6SM BKN050=

USA.gov is the U.S. government's official web portal to all federal, state and local government web resources and services.